sensor_id;sensor_type;location;lat;lon;timestamp;P1;durP1;ratioP1;P2;durP2;ratioP2
13685;SDS011;6915;48.296;8.874;2022-08-19T00:01:38;24.42;;;22.13;;
13685;SDS011;6915;48.296;8.874;2022-08-19T00:04:09;24.53;;;22.23;;
13685;SDS011;6915;48.296;8.874;2022-08-19T00:06:38;24.30;;;21.97;;
13685;SDS011;6915;48.296;8.874;2022-08-19T00:09:07;25.23;;;22.92;;
13685;SDS011;6915;48.296;8.874;2022-08-19T00:11:38;24.15;;;21.92;;
13685;SDS011;6915;48.296;8.874;2022-08-19T00:14:06;23.10;;;21.00;;
13685;SDS011;6915;48.296;8.874;2022-08-19T00:16:34;23.33;;;21.15;;
13685;SDS011;6915;48.296;8.874;2022-08-19T00:19:02;24.00;;;21.80;;
13685;SDS011;6915;48.296;8.874;2022-08-19T00:21:29;24.58;;;22.17;;
13685;SDS011;6915;48.296;8.874;2022-08-19T00:23:56;23.80;;;21.70;;
13685;SDS011;6915;48.296;8.874;2022-08-19T00:26:24;23.55;;;21.33;;
13685;SDS011;6915;48.296;8.874;2022-08-19T00:28:53;22.77;;;20.55;;
13685;SDS011;6915;48.296;8.874;2022-08-19T00:31:20;24.27;;;22.07;;
13685;SDS011;6915;48.296;8.874;2022-08-19T00:33:47;23.80;;;21.57;;
13685;SDS011;6915;48.296;8.874;2022-08-19T00:36:17;24.08;;;21.75;;
13685;SDS011;6915;48.296;8.874;2022-08-19T00:38:44;23.92;;;21.73;;
13685;SDS011;6915;48.296;8.874;2022-08-19T00:41:12;25.52;;;23.02;;
13685;SDS011;6915;48.296;8.874;2022-08-19T00:43:41;23.45;;;21.08;;
13685;SDS011;6915;48.296;8.874;2022-08-19T00:46:09;24.77;;;22.50;;
13685;SDS011;6915;48.296;8.874;2022-08-19T00:48:36;23.65;;;21.33;;
13685;SDS011;6915;48.296;8.874;2022-08-19T00:51:03;24.50;;;22.20;;
13685;SDS011;6915;48.296;8.874;2022-08-19T00:53:31;23.00;;;20.95;;
13685;SDS011;6915;48.296;8.874;2022-08-19T00:56:00;23.65;;;21.33;;
13685;SDS011;6915;48.296;8.874;2022-08-19T00:58:32;23.08;;;20.98;;
13685;SDS011;6915;48.296;8.874;2022-08-19T01:01:00;22.75;;;20.55;;
13685;SDS011;6915;48.296;8.874;2022-08-19T01:03:29;23.70;;;21.60;;
13685;SDS011;6915;48.296;8.874;2022-08-19T01:05:56;23.67;;;21.58;;
13685;SDS011;6915;48.296;8.874;2022-08-19T01:08:23;23.50;;;21.35;;
13685;SDS011;6915;48.296;8.874;2022-08-19T01:10:50;23.27;;;20.92;;
13685;SDS011;6915;48.296;8.874;2022-08-19T01:13:21;21.75;;;19.77;;
13685;SDS011;6915;48.296;8.874;2022-08-19T01:15:56;22.67;;;20.45;;
13685;SDS011;6915;48.296;8.874;2022-08-19T01:18:27;23.83;;;21.50;;
13685;SDS011;6915;48.296;8.874;2022-08-19T01:20:58;21.45;;;19.42;;
13685;SDS011;6915;48.296;8.874;2022-08-19T01:23:29;20.77;;;18.87;;
13685;SDS011;6915;48.296;8.874;2022-08-19T01:26:09;21.80;;;19.80;;
13685;SDS011;6915;48.296;8.874;2022-08-19T01:28:39;21.00;;;19.20;;
13685;SDS011;6915;48.296;8.874;2022-08-19T01:31:07;19.83;;;18.13;;
13685;SDS011;6915;48.296;8.874;2022-08-19T01:33:37;22.77;;;20.58;;
13685;SDS011;6915;48.296;8.874;2022-08-19T01:36:05;21.27;;;19.02;;
13685;SDS011;6915;48.296;8.874;2022-08-19T01:38:35;21.13;;;19.17;;
13685;SDS011;6915;48.296;8.874;2022-08-19T01:41:05;21.30;;;19.23;;
13685;SDS011;6915;48.296;8.874;2022-08-19T01:43:32;22.88;;;20.67;;
13685;SDS011;6915;48.296;8.874;2022-08-19T01:46:00;21.53;;;19.57;;
13685;SDS011;6915;48.296;8.874;2022-08-19T01:48:32;21.13;;;19.20;;
13685;SDS011;6915;48.296;8.874;2022-08-19T01:50:59;21.27;;;19.27;;
13685;SDS011;6915;48.296;8.874;2022-08-19T01:53:26;21.67;;;19.67;;
13685;SDS011;6915;48.296;8.874;2022-08-19T01:55:55;20.88;;;18.88;;
13685;SDS011;6915;48.296;8.874;2022-08-19T01:58:24;21.77;;;19.47;;
13685;SDS011;6915;48.296;8.874;2022-08-19T02:00:56;21.23;;;19.20;;
13685;SDS011;6915;48.296;8.874;2022-08-19T02:03:24;20.83;;;18.90;;
13685;SDS011;6915;48.296;8.874;2022-08-19T02:05:55;22.33;;;20.13;;
13685;SDS011;6915;48.296;8.874;2022-08-19T02:08:22;20.30;;;18.27;;
13685;SDS011;6915;48.296;8.874;2022-08-19T02:10:49;23.07;;;20.73;;
13685;SDS011;6915;48.296;8.874;2022-08-19T02:13:18;22.45;;;20.20;;
13685;SDS011;6915;48.296;8.874;2022-08-19T02:15:45;22.67;;;20.37;;
13685;SDS011;6915;48.296;8.874;2022-08-19T02:18:12;22.57;;;20.37;;
13685;SDS011;6915;48.296;8.874;2022-08-19T02:20:40;24.27;;;21.77;;
13685;SDS011;6915;48.296;8.874;2022-08-19T02:23:08;24.47;;;21.97;;
13685;SDS011;6915;48.296;8.874;2022-08-19T02:25:36;22.07;;;19.77;;
13685;SDS011;6915;48.296;8.874;2022-08-19T02:28:03;23.23;;;20.73;;
13685;SDS011;6915;48.296;8.874;2022-08-19T02:30:32;21.60;;;19.50;;
13685;SDS011;6915;48.296;8.874;2022-08-19T02:32:59;22.17;;;19.93;;
13685;SDS011;6915;48.296;8.874;2022-08-19T02:35:26;22.27;;;20.07;;
13685;SDS011;6915;48.296;8.874;2022-08-19T02:37:52;23.43;;;21.13;;
13685;SDS011;6915;48.296;8.874;2022-08-19T02:40:37;22.70;;;20.40;;
13685;SDS011;6915;48.296;8.874;2022-08-19T02:43:04;22.50;;;20.30;;
13685;SDS011;6915;48.296;8.874;2022-08-19T02:45:35;21.40;;;19.20;;
13685;SDS011;6915;48.296;8.874;2022-08-19T02:48:03;21.47;;;19.33;;
13685;SDS011;6915;48.296;8.874;2022-08-19T02:50:30;21.03;;;18.83;;
13685;SDS011;6915;48.296;8.874;2022-08-19T02:52:58;22.53;;;20.23;;
13685;SDS011;6915;48.296;8.874;2022-08-19T02:55:25;22.00;;;19.83;;
13685;SDS011;6915;48.296;8.874;2022-08-19T02:57:52;21.70;;;19.60;;
13685;SDS011;6915;48.296;8.874;2022-08-19T03:00:19;20.90;;;18.90;;
13685;SDS011;6915;48.296;8.874;2022-08-19T03:02:47;21.10;;;19.00;;
13685;SDS011;6915;48.296;8.874;2022-08-19T03:05:14;20.93;;;18.87;;
13685;SDS011;6915;48.296;8.874;2022-08-19T03:07:41;21.13;;;19.07;;
13685;SDS011;6915;48.296;8.874;2022-08-19T03:10:08;22.43;;;20.23;;
13685;SDS011;6915;48.296;8.874;2022-08-19T03:12:36;22.30;;;20.10;;
13685;SDS011;6915;48.296;8.874;2022-08-19T03:15:04;22.07;;;19.77;;
13685;SDS011;6915;48.296;8.874;2022-08-19T03:17:33;26.10;;;20.87;;
13685;SDS011;6915;48.296;8.874;2022-08-19T03:20:02;21.57;;;19.37;;
13685;SDS011;6915;48.296;8.874;2022-08-19T03:22:30;21.47;;;18.97;;
13685;SDS011;6915;48.296;8.874;2022-08-19T03:24:58;23.23;;;20.17;;
13685;SDS011;6915;48.296;8.874;2022-08-19T03:27:25;22.73;;;20.33;;
13685;SDS011;6915;48.296;8.874;2022-08-19T03:29:52;24.83;;;21.20;;
13685;SDS011;6915;48.296;8.874;2022-08-19T03:32:19;23.57;;;21.07;;
13685;SDS011;6915;48.296;8.874;2022-08-19T03:34:46;22.30;;;20.00;;
13685;SDS011;6915;48.296;8.874;2022-08-19T03:37:15;23.10;;;20.80;;
13685;SDS011;6915;48.296;8.874;2022-08-19T03:39:42;23.27;;;20.13;;
13685;SDS011;6915;48.296;8.874;2022-08-19T03:42:09;22.87;;;20.13;;
13685;SDS011;6915;48.296;8.874;2022-08-19T03:44:37;29.10;;;22.10;;
13685;SDS011;6915;48.296;8.874;2022-08-19T03:47:04;23.70;;;21.10;;
13685;SDS011;6915;48.296;8.874;2022-08-19T03:49:32;23.53;;;20.53;;
13685;SDS011;6915;48.296;8.874;2022-08-19T03:52:00;23.30;;;20.80;;
13685;SDS011;6915;48.296;8.874;2022-08-19T03:54:28;25.83;;;22.37;;
13685;SDS011;6915;48.296;8.874;2022-08-19T03:56:56;23.40;;;21.00;;
13685;SDS011;6915;48.296;8.874;2022-08-19T03:59:24;23.63;;;21.13;;
13685;SDS011;6915;48.296;8.874;2022-08-19T04:01:53;23.97;;;21.37;;
13685;SDS011;6915;48.296;8.874;2022-08-19T04:04:21;23.77;;;21.27;;
13685;SDS011;6915;48.296;8.874;2022-08-19T04:06:48;23.67;;;21.17;;
13685;SDS011;6915;48.296;8.874;2022-08-19T04:09:16;24.03;;;21.47;;
13685;SDS011;6915;48.296;8.874;2022-08-19T04:11:46;24.83;;;21.77;;
13685;SDS011;6915;48.296;8.874;2022-08-19T04:14:19;26.13;;;21.97;;
13685;SDS011;6915;48.296;8.874;2022-08-19T04:16:49;26.23;;;21.50;;
13685;SDS011;6915;48.296;8.874;2022-08-19T04:19:16;24.30;;;20.73;;
13685;SDS011;6915;48.296;8.874;2022-08-19T04:21:44;23.77;;;21.33;;
13685;SDS011;6915;48.296;8.874;2022-08-19T04:24:13;22.87;;;20.50;;
13685;SDS011;6915;48.296;8.874;2022-08-19T04:26:41;24.80;;;21.97;;
13685;SDS011;6915;48.296;8.874;2022-08-19T04:29:11;23.60;;;21.10;;
13685;SDS011;6915;48.296;8.874;2022-08-19T04:31:40;24.53;;;21.93;;
13685;SDS011;6915;48.296;8.874;2022-08-19T04:34:09;28.00;;;22.87;;
13685;SDS011;6915;48.296;8.874;2022-08-19T04:36:38;22.97;;;20.57;;
13685;SDS011;6915;48.296;8.874;2022-08-19T04:39:07;24.53;;;21.33;;
13685;SDS011;6915;48.296;8.874;2022-08-19T04:41:35;23.77;;;21.20;;
13685;SDS011;6915;48.296;8.874;2022-08-19T04:44:21;24.37;;;21.83;;
13685;SDS011;6915;48.296;8.874;2022-08-19T04:46:48;26.97;;;21.67;;
13685;SDS011;6915;48.296;8.874;2022-08-19T04:49:16;25.33;;;21.97;;
13685;SDS011;6915;48.296;8.874;2022-08-19T04:51:47;23.20;;;20.77;;
13685;SDS011;6915;48.296;8.874;2022-08-19T04:54:14;25.63;;;21.67;;
13685;SDS011;6915;48.296;8.874;2022-08-19T04:56:42;30.17;;;24.30;;
13685;SDS011;6915;48.296;8.874;2022-08-19T04:59:09;24.53;;;21.63;;
13685;SDS011;6915;48.296;8.874;2022-08-19T05:01:38;25.53;;;22.13;;
13685;SDS011;6915;48.296;8.874;2022-08-19T05:04:06;26.57;;;23.20;;
13685;SDS011;6915;48.296;8.874;2022-08-19T05:06:34;25.67;;;22.97;;
13685;SDS011;6915;48.296;8.874;2022-08-19T05:09:02;25.83;;;22.40;;
13685;SDS011;6915;48.296;8.874;2022-08-19T05:11:31;25.33;;;21.87;;
13685;SDS011;6915;48.296;8.874;2022-08-19T05:14:04;24.70;;;21.03;;
13685;SDS011;6915;48.296;8.874;2022-08-19T05:16:31;25.80;;;23.00;;
13685;SDS011;6915;48.296;8.874;2022-08-19T05:18:59;27.50;;;24.43;;
13685;SDS011;6915;48.296;8.874;2022-08-19T05:21:51;25.77;;;22.67;;
13685;SDS011;6915;48.296;8.874;2022-08-19T05:24:37;27.50;;;23.17;;
13685;SDS011;6915;48.296;8.874;2022-08-19T05:27:04;26.17;;;23.10;;
13685;SDS011;6915;48.296;8.874;2022-08-19T05:29:32;30.50;;;24.90;;
13685;SDS011;6915;48.296;8.874;2022-08-19T05:32:00;27.17;;;24.23;;
13685;SDS011;6915;48.296;8.874;2022-08-19T05:34:31;27.10;;;24.20;;
13685;SDS011;6915;48.296;8.874;2022-08-19T05:36:58;31.37;;;25.20;;
13685;SDS011;6915;48.296;8.874;2022-08-19T05:39:28;28.67;;;24.80;;
13685;SDS011;6915;48.296;8.874;2022-08-19T05:41:58;34.17;;;25.70;;
13685;SDS011;6915;48.296;8.874;2022-08-19T05:44:27;30.20;;;25.93;;
13685;SDS011;6915;48.296;8.874;2022-08-19T05:46:56;30.60;;;26.43;;
13685;SDS011;6915;48.296;8.874;2022-08-19T05:49:24;32.00;;;26.03;;
13685;SDS011;6915;48.296;8.874;2022-08-19T05:51:54;31.33;;;27.20;;
13685;SDS011;6915;48.296;8.874;2022-08-19T05:54:21;33.47;;;25.30;;
13685;SDS011;6915;48.296;8.874;2022-08-19T05:56:49;28.43;;;24.60;;
13685;SDS011;6915;48.296;8.874;2022-08-19T05:59:17;33.17;;;26.87;;
13685;SDS011;6915;48.296;8.874;2022-08-19T06:01:46;31.73;;;27.13;;
13685;SDS011;6915;48.296;8.874;2022-08-19T06:04:16;28.50;;;25.23;;
13685;SDS011;6915;48.296;8.874;2022-08-19T06:06:44;30.03;;;26.30;;
13685;SDS011;6915;48.296;8.874;2022-08-19T06:09:14;31.80;;;27.13;;
13685;SDS011;6915;48.296;8.874;2022-08-19T06:11:41;32.20;;;27.17;;
13685;SDS011;6915;48.296;8.874;2022-08-19T06:14:11;36.47;;;27.67;;
13685;SDS011;6915;48.296;8.874;2022-08-19T06:16:40;31.73;;;26.30;;
13685;SDS011;6915;48.296;8.874;2022-08-19T06:19:08;32.63;;;25.90;;
13685;SDS011;6915;48.296;8.874;2022-08-19T06:21:37;27.57;;;23.90;;
13685;SDS011;6915;48.296;8.874;2022-08-19T06:24:05;27.47;;;24.57;;
13685;SDS011;6915;48.296;8.874;2022-08-19T06:26:36;30.70;;;26.63;;
13685;SDS011;6915;48.296;8.874;2022-08-19T06:29:04;31.20;;;27.23;;
13685;SDS011;6915;48.296;8.874;2022-08-19T06:31:33;30.73;;;26.63;;
13685;SDS011;6915;48.296;8.874;2022-08-19T06:34:02;36.17;;;28.27;;
13685;SDS011;6915;48.296;8.874;2022-08-19T06:36:31;29.67;;;25.77;;
13685;SDS011;6915;48.296;8.874;2022-08-19T06:39:00;32.90;;;27.47;;
13685;SDS011;6915;48.296;8.874;2022-08-19T06:41:28;32.10;;;26.43;;
13685;SDS011;6915;48.296;8.874;2022-08-19T06:43:58;35.47;;;28.00;;
13685;SDS011;6915;48.296;8.874;2022-08-19T06:46:25;29.07;;;25.67;;
13685;SDS011;6915;48.296;8.874;2022-08-19T06:48:52;30.70;;;26.70;;
13685;SDS011;6915;48.296;8.874;2022-08-19T06:51:20;33.57;;;27.47;;
13685;SDS011;6915;48.296;8.874;2022-08-19T06:53:49;29.33;;;25.20;;
13685;SDS011;6915;48.296;8.874;2022-08-19T06:56:19;31.57;;;27.67;;
13685;SDS011;6915;48.296;8.874;2022-08-19T06:58:55;28.73;;;25.63;;
13685;SDS011;6915;48.296;8.874;2022-08-19T07:01:24;30.20;;;26.33;;
13685;SDS011;6915;48.296;8.874;2022-08-19T07:03:51;29.37;;;26.23;;
13685;SDS011;6915;48.296;8.874;2022-08-19T07:06:18;28.93;;;25.87;;
13685;SDS011;6915;48.296;8.874;2022-08-19T07:08:46;29.80;;;26.60;;
13685;SDS011;6915;48.296;8.874;2022-08-19T07:11:15;30.43;;;26.87;;
13685;SDS011;6915;48.296;8.874;2022-08-19T07:13:44;28.90;;;25.80;;
13685;SDS011;6915;48.296;8.874;2022-08-19T07:16:14;31.27;;;27.23;;
13685;SDS011;6915;48.296;8.874;2022-08-19T07:18:44;30.83;;;26.83;;
13685;SDS011;6915;48.296;8.874;2022-08-19T07:21:13;31.87;;;27.77;;
13685;SDS011;6915;48.296;8.874;2022-08-19T07:23:41;30.27;;;26.47;;
13685;SDS011;6915;48.296;8.874;2022-08-19T07:26:10;31.53;;;28.03;;
13685;SDS011;6915;48.296;8.874;2022-08-19T07:28:39;29.03;;;25.93;;
13685;SDS011;6915;48.296;8.874;2022-08-19T07:31:09;29.70;;;25.97;;
13685;SDS011;6915;48.296;8.874;2022-08-19T07:33:38;32.30;;;28.80;;
13685;SDS011;6915;48.296;8.874;2022-08-19T07:36:07;33.70;;;29.53;;
13685;SDS011;6915;48.296;8.874;2022-08-19T07:38:36;30.47;;;27.23;;
13685;SDS011;6915;48.296;8.874;2022-08-19T07:41:04;31.83;;;27.13;;
13685;SDS011;6915;48.296;8.874;2022-08-19T07:43:32;31.97;;;28.53;;
13685;SDS011;6915;48.296;8.874;2022-08-19T07:45:59;33.33;;;27.60;;
13685;SDS011;6915;48.296;8.874;2022-08-19T07:48:26;32.40;;;28.90;;
13685;SDS011;6915;48.296;8.874;2022-08-19T07:50:56;33.13;;;28.83;;
13685;SDS011;6915;48.296;8.874;2022-08-19T07:53:27;32.47;;;28.97;;
13685;SDS011;6915;48.296;8.874;2022-08-19T07:55:55;33.00;;;28.07;;
13685;SDS011;6915;48.296;8.874;2022-08-19T07:58:28;31.13;;;27.43;;
13685;SDS011;6915;48.296;8.874;2022-08-19T08:00:57;36.23;;;29.20;;
13685;SDS011;6915;48.296;8.874;2022-08-19T08:03:24;32.60;;;29.10;;
13685;SDS011;6915;48.296;8.874;2022-08-19T08:06:07;32.43;;;27.60;;
13685;SDS011;6915;48.296;8.874;2022-08-19T08:08:52;32.77;;;29.27;;
13685;SDS011;6915;48.296;8.874;2022-08-19T08:11:37;32.33;;;28.53;;
13685;SDS011;6915;48.296;8.874;2022-08-19T08:14:05;33.10;;;29.50;;
13685;SDS011;6915;48.296;8.874;2022-08-19T08:16:34;31.83;;;28.47;;
13685;SDS011;6915;48.296;8.874;2022-08-19T08:19:03;33.00;;;28.40;;
13685;SDS011;6915;48.296;8.874;2022-08-19T08:21:33;32.73;;;29.33;;
13685;SDS011;6915;48.296;8.874;2022-08-19T08:24:00;34.07;;;29.53;;
13685;SDS011;6915;48.296;8.874;2022-08-19T08:26:27;32.73;;;29.00;;
13685;SDS011;6915;48.296;8.874;2022-08-19T08:28:54;33.50;;;29.73;;
13685;SDS011;6915;48.296;8.874;2022-08-19T08:31:21;34.07;;;29.53;;
13685;SDS011;6915;48.296;8.874;2022-08-19T08:33:48;33.57;;;29.93;;
13685;SDS011;6915;48.296;8.874;2022-08-19T08:36:15;31.63;;;28.30;;
13685;SDS011;6915;48.296;8.874;2022-08-19T08:38:45;32.40;;;28.93;;
13685;SDS011;6915;48.296;8.874;2022-08-19T08:41:14;33.53;;;29.20;;
13685;SDS011;6915;48.296;8.874;2022-08-19T08:43:49;31.40;;;27.47;;
13685;SDS011;6915;48.296;8.874;2022-08-19T08:46:18;34.27;;;29.33;;
13685;SDS011;6915;48.296;8.874;2022-08-19T08:48:52;30.67;;;27.37;;
13685;SDS011;6915;48.296;8.874;2022-08-19T08:51:25;33.57;;;28.83;;
13685;SDS011;6915;48.296;8.874;2022-08-19T08:53:57;33.63;;;30.00;;
13685;SDS011;6915;48.296;8.874;2022-08-19T08:56:25;32.13;;;28.63;;
13685;SDS011;6915;48.296;8.874;2022-08-19T08:58:54;33.57;;;29.37;;
13685;SDS011;6915;48.296;8.874;2022-08-19T09:01:25;31.80;;;28.40;;
13685;SDS011;6915;48.296;8.874;2022-08-19T09:03:52;30.53;;;27.23;;
13685;SDS011;6915;48.296;8.874;2022-08-19T09:06:22;32.10;;;28.67;;
13685;SDS011;6915;48.296;8.874;2022-08-19T09:08:57;33.87;;;28.47;;
13685;SDS011;6915;48.296;8.874;2022-08-19T09:11:35;31.50;;;28.20;;
13685;SDS011;6915;48.296;8.874;2022-08-19T09:14:12;32.30;;;28.87;;
13685;SDS011;6915;48.296;8.874;2022-08-19T09:16:46;32.20;;;28.70;;
13685;SDS011;6915;48.296;8.874;2022-08-19T09:19:14;29.77;;;26.63;;
13685;SDS011;6915;48.296;8.874;2022-08-19T09:21:42;29.83;;;26.70;;
13685;SDS011;6915;48.296;8.874;2022-08-19T09:24:11;29.97;;;26.97;;
13685;SDS011;6915;48.296;8.874;2022-08-19T09:26:38;29.63;;;26.57;;
13685;SDS011;6915;48.296;8.874;2022-08-19T09:29:05;31.33;;;27.80;;
13685;SDS011;6915;48.296;8.874;2022-08-19T09:31:32;29.87;;;26.87;;
13685;SDS011;6915;48.296;8.874;2022-08-19T09:34:00;29.97;;;26.87;;
13685;SDS011;6915;48.296;8.874;2022-08-19T09:36:29;30.17;;;26.90;;
13685;SDS011;6915;48.296;8.874;2022-08-19T09:38:58;28.50;;;25.47;;
13685;SDS011;6915;48.296;8.874;2022-08-19T09:41:27;28.77;;;25.77;;
13685;SDS011;6915;48.296;8.874;2022-08-19T09:43:55;28.33;;;25.30;;
13685;SDS011;6915;48.296;8.874;2022-08-19T09:46:23;28.73;;;25.83;;
13685;SDS011;6915;48.296;8.874;2022-08-19T09:48:52;28.20;;;25.30;;
13685;SDS011;6915;48.296;8.874;2022-08-19T09:51:20;30.17;;;27.00;;
13685;SDS011;6915;48.296;8.874;2022-08-19T09:53:49;28.47;;;25.57;;
13685;SDS011;6915;48.296;8.874;2022-08-19T09:56:18;30.13;;;26.33;;
13685;SDS011;6915;48.296;8.874;2022-08-19T09:58:48;29.80;;;26.63;;
13685;SDS011;6915;48.296;8.874;2022-08-19T10:01:16;30.50;;;26.30;;
13685;SDS011;6915;48.296;8.874;2022-08-19T10:03:46;29.97;;;26.20;;
13685;SDS011;6915;48.296;8.874;2022-08-19T10:06:16;28.57;;;25.50;;
13685;SDS011;6915;48.296;8.874;2022-08-19T10:08:43;28.00;;;25.07;;
13685;SDS011;6915;48.296;8.874;2022-08-19T10:11:11;28.95;;;25.95;;
13685;SDS011;6915;48.296;8.874;2022-08-19T10:13:41;28.45;;;25.52;;
13685;SDS011;6915;48.296;8.874;2022-08-19T10:16:11;28.67;;;25.52;;
13685;SDS011;6915;48.296;8.874;2022-08-19T10:18:40;28.92;;;25.90;;
13685;SDS011;6915;48.296;8.874;2022-08-19T10:21:09;28.27;;;25.33;;
13685;SDS011;6915;48.296;8.874;2022-08-19T10:23:39;29.73;;;26.10;;
13685;SDS011;6915;48.296;8.874;2022-08-19T10:26:11;28.08;;;25.27;;
13685;SDS011;6915;48.296;8.874;2022-08-19T10:28:38;28.67;;;25.70;;
13685;SDS011;6915;48.296;8.874;2022-08-19T10:31:06;25.57;;;22.97;;
13685;SDS011;6915;48.296;8.874;2022-08-19T10:33:37;25.57;;;22.87;;
13685;SDS011;6915;48.296;8.874;2022-08-19T10:36:05;24.17;;;21.88;;
13685;SDS011;6915;48.296;8.874;2022-08-19T10:38:34;23.90;;;21.60;;
13685;SDS011;6915;48.296;8.874;2022-08-19T10:41:09;25.37;;;22.77;;
13685;SDS011;6915;48.296;8.874;2022-08-19T10:43:37;22.07;;;19.87;;
13685;SDS011;6915;48.296;8.874;2022-08-19T10:46:05;23.10;;;20.90;;
13685;SDS011;6915;48.296;8.874;2022-08-19T10:48:33;26.07;;;23.37;;
13685;SDS011;6915;48.296;8.874;2022-08-19T10:51:01;25.20;;;22.70;;
13685;SDS011;6915;48.296;8.874;2022-08-19T10:53:47;26.48;;;23.35;;
13685;SDS011;6915;48.296;8.874;2022-08-19T10:56:14;25.83;;;22.70;;
13685;SDS011;6915;48.296;8.874;2022-08-19T10:58:58;23.73;;;21.40;;
13685;SDS011;6915;48.296;8.874;2022-08-19T11:01:26;27.70;;;24.80;;
13685;SDS011;6915;48.296;8.874;2022-08-19T11:03:54;25.43;;;22.03;;
13685;SDS011;6915;48.296;8.874;2022-08-19T11:06:24;24.50;;;21.97;;
13685;SDS011;6915;48.296;8.874;2022-08-19T11:08:51;24.97;;;22.50;;
13685;SDS011;6915;48.296;8.874;2022-08-19T11:11:18;26.97;;;24.07;;
13685;SDS011;6915;48.296;8.874;2022-08-19T11:13:45;24.63;;;22.03;;
13685;SDS011;6915;48.296;8.874;2022-08-19T11:16:14;27.37;;;24.70;;
13685;SDS011;6915;48.296;8.874;2022-08-19T11:18:44;26.13;;;23.53;;
13685;SDS011;6915;48.296;8.874;2022-08-19T11:21:14;26.73;;;23.90;;
13685;SDS011;6915;48.296;8.874;2022-08-19T11:23:45;26.97;;;24.17;;
13685;SDS011;6915;48.296;8.874;2022-08-19T11:26:13;26.63;;;23.83;;
13685;SDS011;6915;48.296;8.874;2022-08-19T11:28:41;25.27;;;22.77;;
13685;SDS011;6915;48.296;8.874;2022-08-19T11:31:09;28.17;;;24.27;;
13685;SDS011;6915;48.296;8.874;2022-08-19T11:33:37;28.13;;;25.30;;
13685;SDS011;6915;48.296;8.874;2022-08-19T11:36:05;30.13;;;25.20;;
13685;SDS011;6915;48.296;8.874;2022-08-19T11:38:32;25.57;;;23.07;;
13685;SDS011;6915;48.296;8.874;2022-08-19T11:41:03;27.60;;;24.73;;
13685;SDS011;6915;48.296;8.874;2022-08-19T11:43:32;25.97;;;23.33;;
13685;SDS011;6915;48.296;8.874;2022-08-19T11:46:03;28.80;;;25.80;;
13685;SDS011;6915;48.296;8.874;2022-08-19T11:48:32;27.73;;;25.00;;
13685;SDS011;6915;48.296;8.874;2022-08-19T11:50:59;27.80;;;25.00;;
13685;SDS011;6915;48.296;8.874;2022-08-19T11:53:31;28.90;;;26.00;;
13685;SDS011;6915;48.296;8.874;2022-08-19T11:55:59;29.07;;;26.03;;
13685;SDS011;6915;48.296;8.874;2022-08-19T11:58:28;29.47;;;26.47;;
13685;SDS011;6915;48.296;8.874;2022-08-19T12:00:55;26.87;;;24.27;;
13685;SDS011;6915;48.296;8.874;2022-08-19T12:03:23;27.27;;;24.50;;
13685;SDS011;6915;48.296;8.874;2022-08-19T12:05:50;26.87;;;24.37;;
13685;SDS011;6915;48.296;8.874;2022-08-19T12:08:17;27.40;;;24.67;;
13685;SDS011;6915;48.296;8.874;2022-08-19T12:10:45;28.03;;;25.30;;
13685;SDS011;6915;48.296;8.874;2022-08-19T12:13:14;28.37;;;25.57;;
13685;SDS011;6915;48.296;8.874;2022-08-19T12:15:46;27.73;;;24.93;;
13685;SDS011;6915;48.296;8.874;2022-08-19T12:18:15;28.43;;;25.57;;
13685;SDS011;6915;48.296;8.874;2022-08-19T12:20:42;29.43;;;26.33;;
13685;SDS011;6915;48.296;8.874;2022-08-19T12:23:11;30.23;;;27.20;;
13685;SDS011;6915;48.296;8.874;2022-08-19T12:25:43;30.27;;;27.17;;
13685;SDS011;6915;48.296;8.874;2022-08-19T12:28:14;33.07;;;29.77;;
13685;SDS011;6915;48.296;8.874;2022-08-19T12:30:42;29.13;;;26.30;;
13685;SDS011;6915;48.296;8.874;2022-08-19T12:33:09;31.40;;;28.30;;
13685;SDS011;6915;48.296;8.874;2022-08-19T12:35:38;30.80;;;27.63;;
13685;SDS011;6915;48.296;8.874;2022-08-19T12:38:06;32.43;;;29.13;;
13685;SDS011;6915;48.296;8.874;2022-08-19T12:40:33;32.50;;;29.20;;
13685;SDS011;6915;48.296;8.874;2022-08-19T12:43:00;32.27;;;29.07;;
13685;SDS011;6915;48.296;8.874;2022-08-19T12:45:29;33.40;;;30.00;;
13685;SDS011;6915;48.296;8.874;2022-08-19T12:47:56;31.20;;;28.10;;
13685;SDS011;6915;48.296;8.874;2022-08-19T12:50:23;33.70;;;30.00;;
13685;SDS011;6915;48.296;8.874;2022-08-19T12:52:50;32.07;;;28.87;;
13685;SDS011;6915;48.296;8.874;2022-08-19T12:55:17;32.67;;;29.27;;
13685;SDS011;6915;48.296;8.874;2022-08-19T12:57:45;33.77;;;30.40;;
13685;SDS011;6915;48.296;8.874;2022-08-19T13:00:15;33.23;;;29.87;;
13685;SDS011;6915;48.296;8.874;2022-08-19T13:02:47;32.33;;;29.03;;
13685;SDS011;6915;48.296;8.874;2022-08-19T13:05:16;31.80;;;28.60;;
13685;SDS011;6915;48.296;8.874;2022-08-19T13:07:47;33.47;;;30.07;;
13685;SDS011;6915;48.296;8.874;2022-08-19T13:10:16;33.07;;;29.77;;
13685;SDS011;6915;48.296;8.874;2022-08-19T13:12:46;32.63;;;29.33;;
13685;SDS011;6915;48.296;8.874;2022-08-19T13:15:16;34.07;;;30.57;;
13685;SDS011;6915;48.296;8.874;2022-08-19T13:17:45;34.70;;;31.10;;
13685;SDS011;6915;48.296;8.874;2022-08-19T13:20:14;33.60;;;30.23;;
13685;SDS011;6915;48.296;8.874;2022-08-19T13:22:43;33.33;;;29.83;;
13685;SDS011;6915;48.296;8.874;2022-08-19T13:25:11;33.10;;;29.80;;
13685;SDS011;6915;48.296;8.874;2022-08-19T13:27:39;32.40;;;29.20;;
13685;SDS011;6915;48.296;8.874;2022-08-19T13:30:08;31.90;;;28.73;;
13685;SDS011;6915;48.296;8.874;2022-08-19T13:32:55;33.50;;;29.90;;
13685;SDS011;6915;48.296;8.874;2022-08-19T13:35:39;32.40;;;29.23;;
13685;SDS011;6915;48.296;8.874;2022-08-19T13:38:08;34.00;;;30.23;;
13685;SDS011;6915;48.296;8.874;2022-08-19T13:40:35;34.13;;;30.63;;
13685;SDS011;6915;48.296;8.874;2022-08-19T13:43:03;36.30;;;32.67;;
13685;SDS011;6915;48.296;8.874;2022-08-19T13:45:31;37.13;;;33.20;;
13685;SDS011;6915;48.296;8.874;2022-08-19T13:48:01;34.07;;;30.60;;
13685;SDS011;6915;48.296;8.874;2022-08-19T13:50:31;35.70;;;32.20;;
13685;SDS011;6915;48.296;8.874;2022-08-19T13:52:59;33.53;;;30.23;;
13685;SDS011;6915;48.296;8.874;2022-08-19T13:55:28;33.83;;;30.43;;
13685;SDS011;6915;48.296;8.874;2022-08-19T13:57:55;33.17;;;29.87;;
13685;SDS011;6915;48.296;8.874;2022-08-19T14:00:25;33.07;;;29.87;;
13685;SDS011;6915;48.296;8.874;2022-08-19T14:02:54;32.80;;;29.70;;
13685;SDS011;6915;48.296;8.874;2022-08-19T14:05:24;33.00;;;29.80;;
13685;SDS011;6915;48.296;8.874;2022-08-19T14:07:52;35.10;;;31.10;;
13685;SDS011;6915;48.296;8.874;2022-08-19T14:10:20;33.10;;;29.60;;
13685;SDS011;6915;48.296;8.874;2022-08-19T14:12:47;32.37;;;29.23;;
13685;SDS011;6915;48.296;8.874;2022-08-19T14:15:15;32.80;;;29.60;;
13685;SDS011;6915;48.296;8.874;2022-08-19T14:17:43;33.80;;;30.50;;
13685;SDS011;6915;48.296;8.874;2022-08-19T14:20:11;34.83;;;31.33;;
13685;SDS011;6915;48.296;8.874;2022-08-19T14:22:42;35.08;;;31.77;;
13685;SDS011;6915;48.296;8.874;2022-08-19T14:25:11;32.63;;;29.33;;
13685;SDS011;6915;48.296;8.874;2022-08-19T14:27:40;33.30;;;30.10;;
13685;SDS011;6915;48.296;8.874;2022-08-19T14:30:08;34.13;;;30.67;;
13685;SDS011;6915;48.296;8.874;2022-08-19T14:32:37;33.90;;;30.50;;
13685;SDS011;6915;48.296;8.874;2022-08-19T14:35:04;30.33;;;27.42;;
13685;SDS011;6915;48.296;8.874;2022-08-19T14:37:33;30.85;;;27.95;;
13685;SDS011;6915;48.296;8.874;2022-08-19T14:40:02;31.73;;;28.58;;
13685;SDS011;6915;48.296;8.874;2022-08-19T14:42:30;29.40;;;26.63;;
13685;SDS011;6915;48.296;8.874;2022-08-19T14:44:57;28.02;;;25.25;;